Time;durP1;ratioP1;P1;durP2;ratioP2;P2;SDS_P1;SDS_P2;PMS_P1;PMS_P2;Temp;Humidity;BMP_temperature;BMP_pressure;BME280_temperature;BME280_humidity;BME280_pressure;Samples;Min_cycle;Max_cycle;Signal;HPM_P1;HPM_P2
2021/06/14 00:00:41;;;;;;;;;4.50;4.50;;;;;27.65;66.32;98572.81;5072276;28;8841;-74
2021/06/14 00:03:10;;;;;;;;;4.25;4.25;;;;;27.62;66.43;98579.00;5072133;28;8838;-74
2021/06/14 00:05:42;;;;;;;;;3.75;3.75;;;;;27.67;66.56;98580.56;5072231;28;8853;-74
2021/06/14 00:08:15;;;;;;;;;4.75;4.75;;;;;27.71;66.63;98576.72;5071862;28;8849;-74
2021/06/14 00:10:47;;;;;;;;;3.00;3.00;;;;;27.73;66.09;98585.22;5071776;28;8845;-75
2021/06/14 00:13:17;;;;;;;;;5.50;5.50;;;;;27.55;66.47;98551.88;5072112;28;8880;-75
2021/06/14 00:15:47;;;;;;;;;2.75;2.75;;;;;27.76;66.50;98580.97;5072140;28;8830;-74
2021/06/14 00:18:16;;;;;;;;;3.00;3.00;;;;;27.78;66.59;98584.84;5072062;28;8838;-74
2021/06/14 00:20:57;;;;;;;;;3.75;3.75;;;;;27.81;66.45;98586.78;5071908;28;8841;-73
2021/06/14 00:23:30;;;;;;;;;5.00;5.00;;;;;27.84;66.48;98580.59;5071961;28;8837;-74
2021/06/14 00:26:01;;;;;;;;;3.75;3.75;;;;;27.90;66.37;98589.13;5072197;28;8880;-74
2021/06/14 00:28:30;;;;;;;;;6.00;6.00;;;;;27.91;66.39;98588.75;5054334;28;8983;-74
2021/06/14 00:30:58;;;;;;;;;3.00;3.00;;;;;27.91;66.27;98579.84;5071979;28;8918;-74
2021/06/14 00:33:27;;;;;;;;;4.00;4.00;;;;;27.94;66.30;98585.25;5071854;28;9586;-74
2021/06/14 00:35:55;;;;;;;;;4.50;4.50;;;;;27.83;66.21;98576.34;5072679;28;8872;-74
2021/06/14 00:38:24;;;;;;;;;3.00;3.00;;;;;28.00;66.24;98599.22;5071976;28;8842;-74
2021/06/14 00:40:53;;;;;;;;;4.00;4.00;;;;;28.04;66.22;98597.28;5071818;28;8898;-74
2021/06/14 00:43:22;;;;;;;;;3.75;3.75;;;;;28.02;66.07;98594.19;5071839;28;8856;-74
2021/06/14 00:45:53;;;;;;;;;4.75;4.75;;;;;28.07;66.26;98593.78;5071764;28;8841;-74
2021/06/14 00:48:22;;;;;;;;;4.25;4.25;;;;;28.12;65.99;98601.53;5071806;28;8861;-74
2021/06/14 00:50:53;;;;;;;;;3.50;3.50;;;;;28.14;66.08;98606.59;5071728;28;8838;-75
2021/06/14 00:53:25;;;;;;;;;3.50;3.50;;;;;28.20;65.79;98608.53;5070554;28;8908;-76
2021/06/14 00:55:54;;;;;;;;;3.75;3.75;;;;;28.24;65.47;98613.97;5071837;28;8947;-74
2021/06/14 00:58:22;;;;;;;;;4.25;4.25;;;;;28.17;65.53;98603.09;5070430;28;8849;-77
2021/06/14 01:00:51;;;;;;;;;5.50;5.50;;;;;28.11;65.37;98586.44;5071312;28;8837;-78
2021/06/14 01:03:21;;;;;;;;;4.00;4.00;;;;;28.35;65.06;98625.59;5071278;28;8841;-78
2021/06/14 01:06:00;;;;;;;;;5.00;5.00;;;;;28.34;64.90;98613.19;5071126;28;8829;-78
2021/06/14 01:08:32;;;;;;;;;5.25;5.25;;;;;28.41;64.89;98618.63;5070934;28;9049;-77
2021/06/14 01:11:27;;;;;;;;;4.25;4.25;;;;;28.47;64.86;98619.78;5071214;28;8841;-76
2021/06/14 01:14:15;;;;;;;;;3.00;3.00;;;;;28.51;64.67;98608.94;5071103;28;8853;-77
2021/06/14 01:17:07;;;;;;;;;4.50;4.50;;;;;28.53;64.67;98604.66;5071185;28;8938;-77
2021/06/14 01:19:50;;;;;;;;;4.50;4.50;;;;;28.52;64.87;98600.41;5070108;28;8949;-78
2021/06/14 01:22:47;;;;;;;;;4.75;4.75;;;;;28.50;64.62;98591.09;5074578;28;8837;-75
2021/06/14 01:25:34;;;;;;;;;4.00;4.00;;;;;28.63;64.26;98608.50;5075013;28;8853;-76
2021/06/14 01:28:07;;;;;;;;;4.00;4.00;;;;;28.55;64.36;98591.47;5074134;28;9388;-77
2021/06/14 01:30:39;;;;;;;;;2.50;2.50;;;;;28.69;64.16;98604.22;5074386;28;8845;-76
2021/06/14 01:33:10;;;;;;;;;5.75;5.75;;;;;28.70;64.25;98594.16;5074635;28;8873;-77
2021/06/14 01:35:44;;;;;;;;;3.50;3.50;;;;;28.78;63.99;98601.88;5074547;28;8841;-80
2021/06/14 01:38:13;;;;;;;;;3.00;3.00;;;;;28.81;64.04;98603.81;5074781;28;8865;-77
2021/06/14 01:40:43;;;;;;;;;4.75;4.75;;;;;28.82;64.23;98602.69;5073360;28;9254;-77
2021/06/14 01:43:15;;;;;;;;;4.50;4.50;;;;;28.80;63.71;98612.34;5073636;28;8980;-76
2021/06/14 01:45:49;;;;;;;;;2.75;2.75;;;;;28.73;64.07;98586.00;5073869;28;8972;-77
2021/06/14 01:48:20;;;;;;;;;3.75;3.75;;;;;28.81;64.14;98614.66;5072921;28;8934;-76
2021/06/14 01:50:50;;;;;;;;;4.00;4.00;;;;;28.80;64.03;98612.34;5072895;28;8868;-78
2021/06/14 01:53:19;;;;;;;;;4.50;4.25;;;;;28.78;63.58;98606.53;5073936;28;8907;-76
2021/06/14 01:55:48;;;;;;;;;4.25;4.25;;;;;28.80;63.63;98612.34;5074373;28;8838;-76
2021/06/14 01:58:18;;;;;;;;;3.00;3.00;;;;;28.82;63.44;98623.59;5074039;28;8860;-78
2021/06/14 02:00:47;;;;;;;;;4.00;4.00;;;;;28.83;63.54;98614.31;5073807;28;9422;-75
2021/06/14 02:03:20;;;;;;;;;5.25;5.25;;;;;28.87;63.60;98621.28;5074160;28;8841;-77
2021/06/14 02:05:49;;;;;;;;;4.75;4.75;;;;;28.81;63.52;98609.25;5073147;28;9028;-77
2021/06/14 02:08:19;;;;;;;;;5.00;5.00;;;;;28.89;63.59;98621.66;5073935;28;8839;-78
2021/06/14 02:10:49;;;;;;;;;5.00;5.00;;;;;28.94;63.61;98620.50;5073137;28;8838;-77
2021/06/14 02:13:20;;;;;;;;;5.50;5.50;;;;;28.98;63.34;98621.25;5074158;28;8968;-76
2021/06/14 02:15:49;;;;;;;;;3.75;3.75;;;;;28.98;63.48;98625.91;5073714;28;8837;-77
2021/06/14 02:18:23;;;;;;;;;4.25;4.25;;;;;28.94;63.77;98612.34;5073236;28;8877;-77
2021/06/14 02:20:52;;;;;;;;;4.25;4.25;;;;;29.06;63.28;98632.88;5073304;28;8837;-76
2021/06/14 02:23:21;;;;;;;;;4.00;4.00;;;;;29.07;63.24;98627.06;5055891;28;8837;-75
2021/06/14 02:25:49;;;;;;;;;4.50;4.00;;;;;28.90;62.88;98601.50;5072560;28;8880;-75
2021/06/14 02:28:18;;;;;;;;;12.75;12.75;;;;;29.08;62.78;98623.16;5073501;28;8849;-75
2021/06/14 02:30:47;;;;;;;;;3.00;3.00;;;;;29.07;62.84;98621.63;5072628;28;8838;-75
2021/06/14 02:33:16;;;;;;;;;3.00;3.00;;;;;29.10;62.97;98615.41;5072576;28;8930;-74
2021/06/14 02:35:45;;;;;;;;;3.50;3.25;;;;;29.07;62.47;98613.47;5073364;28;8918;-75
2021/06/14 02:38:14;;;;;;;;;3.50;3.50;;;;;29.08;63.03;98606.88;5073794;28;8845;-74
2021/06/14 02:40:43;;;;;;;;;3.75;3.75;;;;;29.07;62.81;98605.31;5072972;28;8879;-74
2021/06/14 02:43:12;;;;;;;;;4.75;4.75;;;;;29.07;62.84;98593.69;5073061;28;9084;-75
2021/06/14 02:45:42;;;;;;;;;5.00;5.00;;;;;29.20;62.93;98603.72;5072927;28;8881;-76
2021/06/14 02:48:12;;;;;;;;;3.25;3.25;;;;;28.98;62.04;98563.47;5071556;28;8881;-77
2021/06/14 02:50:43;;;;;;;;;5.75;5.75;;;;;29.29;62.47;98599.81;5075032;28;8869;-79
2021/06/14 02:53:15;;;;;;;;;4.00;4.00;;;;;29.29;62.26;98594.38;5072110;28;8964;-79
2021/06/14 02:56:03;;;;;;;;;3.00;3.00;;;;;29.41;61.40;98588.50;5055469;28;8842;-76
2021/06/14 02:58:36;;;;;;;;;0.00;0.00;;;;;29.44;60.98;98585.03;5072812;28;8849;-74
2021/06/14 03:01:08;;;;;;;;;2.25;2.25;;;;;29.55;60.88;98591.16;5072609;28;8845;-78
2021/06/14 03:03:40;;;;;;;;;2.75;2.75;;;;;29.63;60.87;98589.19;5072600;28;8850;-75
2021/06/14 03:06:14;;;;;;;;;2.50;2.50;;;;;29.61;60.61;98578.72;5075188;28;8843;-75
2021/06/14 03:08:46;;;;;;;;;2.00;2.00;;;;;29.77;60.43;98587.16;5083615;28;8823;-76
2021/06/14 03:11:15;;;;;;;;;2.25;2.25;;;;;29.81;59.35;98598.78;5084259;28;8847;-76
2021/06/14 03:13:45;;;;;;;;;2.75;2.75;;;;;29.90;59.97;98592.13;5087137;28;8843;-76
2021/06/14 03:16:17;;;;;;;;;2.75;2.75;;;;;29.91;59.23;98593.66;5085379;28;8887;-77
2021/06/14 03:18:47;;;;;;;;;2.00;2.00;;;;;29.95;59.54;98591.66;5089426;28;9511;-77
2021/06/14 03:21:16;;;;;;;;;1.75;1.75;;;;;30.00;59.33;98591.25;5079253;28;8853;-74
2021/06/14 03:23:48;;;;;;;;;1.75;1.75;;;;;29.91;58.94;98578.09;5082510;28;8833;-74
2021/06/14 03:26:19;;;;;;;;;1.25;1.25;;;;;30.08;59.90;98598.22;5083600;28;8834;-74
2021/06/14 03:28:48;;;;;;;;;2.25;2.25;;;;;30.07;59.79;98588.50;5082542;28;8820;-78
2021/06/14 03:31:17;;;;;;;;;1.75;1.75;;;;;30.16;59.50;98603.19;5073115;28;8914;-74
2021/06/14 03:33:48;;;;;;;;;2.00;1.75;;;;;30.18;58.32;98600.84;5072054;28;8816;-75
2021/06/14 03:36:20;;;;;;;;;1.75;1.75;;;;;30.19;58.99;98588.78;5072057;28;8950;-73
2021/06/14 03:38:53;;;;;;;;;1.75;1.75;;;;;30.27;58.88;98594.94;5072097;28;8833;-76
2021/06/14 03:41:22;;;;;;;;;0.75;0.75;;;;;30.24;58.98;98579.44;5071937;28;8865;-75
2021/06/14 03:43:51;;;;;;;;;1.40;1.40;;;;;30.41;58.66;98592.09;5071139;28;8874;-74
2021/06/14 03:46:20;;;;;;;;;1.50;1.50;;;;;30.48;58.64;98586.59;5071410;28;8864;-75
2021/06/14 03:48:50;;;;;;;;;1.60;1.60;;;;;30.44;58.02;98572.25;5071969;28;8830;-73
2021/06/14 03:51:19;;;;;;;;;2.50;2.50;;;;;30.43;58.24;98562.53;5072188;28;8830;-76
2021/06/14 03:53:57;;;;;;;;;2.00;2.00;;;;;30.61;56.35;98569.78;5070051;28;8835;-77
2021/06/14 03:56:32;;;;;;;;;0.60;0.60;;;;;30.63;58.62;98553.81;5071841;28;8829;-75
2021/06/14 03:59:03;;;;;;;;;2.00;2.00;;;;;30.78;56.39;98572.31;5054217;28;8849;-77
2021/06/14 04:01:33;;;;;;;;;0.80;0.80;;;;;30.74;56.61;98551.75;5053755;28;8849;-78
2021/06/14 04:04:36;;;;;;;;;0.60;0.60;;;;;30.86;56.71;98564.06;5071117;28;8922;-78
2021/06/14 04:06:51;;;;;;;;;1.60;1.60;;;;;30.92;56.89;98570.63;5071137;28;8880;-74
2021/06/14 04:09:19;;;;;;;;;1.80;1.80;;;;;30.98;56.78;98569.75;5071971;28;8834;-78
2021/06/14 04:11:48;;;;;;;;;1.60;1.60;;;;;30.97;55.96;98567.44;5070733;28;8853;-73
2021/06/14 04:14:16;;;;;;;;;1.00;1.00;;;;;31.00;57.93;98564.69;5070385;28;9004;-78
2021/06/14 04:16:45;;;;;;;;;3.50;3.50;;;;;30.98;57.64;98555.38;5071654;28;8846;-75
2021/06/14 04:19:14;;;;;;;;;1.80;1.80;;;;;30.99;57.65;98548.75;5070874;28;8857;-73
2021/06/14 04:21:42;;;;;;;;;2.80;2.80;;;;;31.10;57.63;98555.59;5050739;28;8811;-73
2021/06/14 04:24:11;;;;;;;;;2.00;2.00;;;;;30.96;56.06;98538.66;5070343;28;8984;-73
2021/06/14 04:26:40;;;;;;;;;1.60;1.60;;;;;31.12;56.59;98550.53;5069241;28;8841;-74
2021/06/14 04:29:08;;;;;;;;;1.20;1.20;;;;;31.00;56.38;98525.78;5070604;28;8819;-76
2021/06/14 04:31:37;;;;;;;;;1.00;1.00;;;;;31.21;56.60;98547.28;5069584;28;8831;-78
2021/06/14 04:34:06;;;;;;;;;1.40;1.40;;;;;31.28;56.21;98544.47;5069057;28;8847;-73
2021/06/14 04:36:36;;;;;;;;;0.60;0.60;;;;;31.30;56.20;98528.50;5070558;28;8957;-75
2021/06/14 04:39:06;;;;;;;;;2.00;2.00;;;;;31.34;56.58;98521.03;5069185;28;8912;-73
2021/06/14 04:41:35;;;;;;;;;1.60;1.60;;;;;31.55;55.52;98524.63;5068631;28;8935;-73
2021/06/14 04:44:04;;;;;;;;;1.60;1.60;;;;;31.66;55.45;98528.75;5069313;28;8859;-74
2021/06/14 04:46:33;;;;;;;;;2.00;2.00;;;;;31.75;55.79;98517.34;5070441;28;8831;-75
2021/06/14 04:49:01;;;;;;;;;1.80;1.80;;;;;31.64;56.75;98500.34;5070250;28;8858;-76
2021/06/14 04:51:33;;;;;;;;;1.60;1.60;;;;;31.68;55.09;98488.22;5068894;28;8977;-76
2021/06/14 04:54:02;;;;;;;;;2.40;2.40;;;;;31.88;55.15;98510.13;5063701;28;8878;-75
2021/06/14 04:56:32;;;;;;;;;2.00;2.00;;;;;31.90;55.39;98507.75;5051262;28;9008;-76
2021/06/14 04:59:00;;;;;;;;;2.00;2.00;;;;;32.03;55.48;98510.66;5054764;28;8882;-74
2021/06/14 05:01:29;;;;;;;;;2.00;2.00;;;;;31.95;55.08;98484.69;5044491;28;8827;-75
2021/06/14 05:03:58;;;;;;;;;1.60;1.60;;;;;32.17;55.25;98498.72;5042423;28;8857;-73
2021/06/14 05:06:27;;;;;;;;;1.60;1.60;;;;;32.17;54.93;98494.03;5040787;28;8858;-72
2021/06/14 05:08:56;;;;;;;;;3.00;3.00;;;;;32.19;54.42;98490.88;5041652;28;8978;-78
2021/06/14 05:11:25;;;;;;;;;2.80;2.80;;;;;32.17;54.70;98477.66;5056348;28;8866;-76
2021/06/14 05:13:54;;;;;;;;;2.00;2.00;;;;;32.40;54.59;98494.03;5055470;28;8927;-71
2021/06/14 05:16:23;;;;;;;;;2.80;2.80;;;;;32.49;54.96;98493.47;5045648;28;8833;-76
2021/06/14 05:18:51;;;;;;;;;2.80;2.80;;;;;32.50;53.84;98486.06;5041012;28;8878;-75
2021/06/14 05:21:20;;;;;;;;;4.60;3.20;;;;;32.55;54.30;98480.84;5056321;28;8975;-75
2021/06/14 05:23:49;;;;;;;;;2.80;2.80;;;;;32.62;54.61;98496.31;5039150;28;8835;-75
2021/06/14 05:26:21;;;;;;;;;3.80;3.80;;;;;32.61;54.51;98481.13;5039198;28;8993;-74
2021/06/14 05:28:49;;;;;;;;;3.00;3.00;;;;;32.70;54.30;98481.34;5040549;28;8859;-75
2021/06/14 05:31:21;;;;;;;;;1.20;1.20;;;;;32.73;54.26;98480.50;5051532;28;8847;-75
2021/06/14 05:33:51;;;;;;;;;2.40;2.40;;;;;32.73;54.49;98477.75;5045440;28;8876;-74
2021/06/14 05:36:19;;;;;;;;;2.00;2.00;;;;;32.75;54.68;98481.59;5053186;28;8856;-73
2021/06/14 05:38:48;;;;;;;;;5.40;5.40;;;;;32.77;55.29;98469.53;5045961;28;8973;-70
2021/06/14 05:41:17;;;;;;;;;5.80;5.80;;;;;32.81;53.74;98462.78;5046962;28;8866;-71
2021/06/14 05:43:46;;;;;;;;;1.80;1.80;;;;;32.85;54.27;98458.03;5052478;28;8882;-71
2021/06/14 05:46:15;;;;;;;;;3.80;3.80;;;;;32.90;54.15;98462.22;5037615;28;8932;-71
2021/06/14 05:48:47;;;;;;;;;8.20;8.20;;;;;32.85;53.46;98438.13;5030226;28;8865;-71
2021/06/14 05:51:19;;;;;;;;;4.60;4.40;;;;;32.93;53.60;98445.75;5031745;28;8873;-72
2021/06/14 05:53:49;;;;;;;;;3.40;3.40;;;;;32.90;52.99;98437.63;5043430;28;8856;-73
2021/06/14 05:56:18;;;;;;;;;3.20;3.20;;;;;32.92;52.13;98427.81;5052484;28;8840;-73
2021/06/14 05:58:46;;;;;;;;;6.00;6.00;;;;;32.40;54.33;98341.16;5052113;28;9553;-72
2021/06/14 06:01:20;;;;;;;;;3.80;3.80;;;;;32.91;52.33;98400.91;5066346;28;8854;-71
2021/06/14 06:03:49;;;;;;;;;5.20;5.20;;;;;33.07;52.44;98426.31;5047953;28;8850;-70
2021/06/14 06:06:18;;;;;;;;;4.60;4.60;;;;;33.32;52.64;98439.44;5037091;28;8875;-72
2021/06/14 06:08:46;;;;;;;;;3.80;3.80;;;;;33.41;52.77;98444.31;5032368;28;8858;-72
2021/06/14 06:11:15;;;;;;;;;1.60;1.60;;;;;33.46;54.41;98437.56;5032927;28;8854;-71
2021/06/14 06:13:44;;;;;;;;;2.00;2.00;;;;;33.49;52.62;98440.22;5033115;28;8859;-70
2021/06/14 06:16:12;;;;;;;;;3.60;3.60;;;;;33.48;53.35;98432.44;5033041;28;8879;-72
2021/06/14 06:18:41;;;;;;;;;3.40;3.40;;;;;33.52;53.22;98436.63;5032734;28;8859;-71
2021/06/14 06:21:10;;;;;;;;;1.80;1.80;;;;;33.57;52.22;98438.84;5031126;28;8893;-72
2021/06/14 06:23:38;;;;;;;;;2.20;2.20;;;;;33.57;50.55;98430.63;5031258;28;8858;-71
2021/06/14 06:26:07;;;;;;;;;2.00;2.00;;;;;33.56;51.10;98436.53;5031811;28;8874;-71
2021/06/14 06:28:35;;;;;;;;;4.20;3.00;;;;;33.48;52.54;98422.25;5032575;28;8843;-72
2021/06/14 06:31:04;;;;;;;;;1.60;1.60;;;;;33.41;52.65;98427.91;5032982;28;8913;-70
2021/06/14 06:33:32;;;;;;;;;1.40;1.40;;;;;33.17;52.66;98405.41;5039422;28;8917;-72
2021/06/14 06:36:01;;;;;;;;;2.40;2.40;;;;;33.25;51.04;98423.16;5036506;28;8861;-72
2021/06/14 06:38:30;;;;;;;;;1.00;1.00;;;;;33.22;52.80;98417.78;5042519;28;8840;-71
2021/06/14 06:40:59;;;;;;;;;1.00;1.00;;;;;33.22;52.04;98429.47;5040925;28;8850;-69
2021/06/14 06:43:27;;;;;;;;;1.20;1.20;;;;;33.16;51.28;98414.03;5043954;28;8906;-70
2021/06/14 06:45:56;;;;;;;;;1.60;1.60;;;;;33.17;51.86;98418.28;5051809;28;9577;-72
2021/06/14 06:48:24;;;;;;;;;0.20;0.20;;;;;33.27;51.22;98425.47;5053713;28;8871;-70
2021/06/14 06:50:53;;;;;;;;;3.00;3.00;;;;;33.24;51.60;98393.53;5052294;28;8848;-71
2021/06/14 06:53:23;;;;;;;;;0.80;0.80;;;;;33.38;50.76;98412.34;5066970;28;9731;-72
2021/06/14 06:55:52;;;;;;;;;0.80;0.80;;;;;33.48;52.04;98418.75;5052154;28;9011;-72
2021/06/14 06:58:21;;;;;;;;;1.00;1.00;;;;;33.48;49.21;98399.63;5053446;28;8836;-74
2021/06/14 07:00:51;;;;;;;;;1.00;1.00;;;;;33.66;52.10;98403.44;5052477;28;8860;-73
2021/06/14 07:03:20;;;;;;;;;1.20;1.20;;;;;33.75;50.27;98397.34;5039013;28;9732;-72
2021/06/14 07:05:49;;;;;;;;;2.00;2.00;;;;;33.79;51.83;98395.28;5040986;28;8904;-70
2021/06/14 07:08:18;;;;;;;;;0.20;0.20;;;;;33.83;51.18;98395.22;5032073;28;8851;-70
2021/06/14 07:10:46;;;;;;;;;1.00;1.00;;;;;33.85;49.73;98392.81;5024872;28;8863;-71
2021/06/14 07:13:16;;;;;;;;;1.00;1.00;;;;;33.86;50.22;98386.13;5022720;28;8847;-72
2021/06/14 07:15:46;;;;;;;;;1.80;1.80;;;;;33.92;50.05;98392.63;5020043;28;9558;-72
2021/06/14 07:18:15;;;;;;;;;1.60;1.60;;;;;33.92;50.85;98379.69;5028736;28;8845;-72
2021/06/14 07:20:43;;;;;;;;;0.60;0.60;;;;;33.90;50.08;98364.91;5015279;28;8865;-74
2021/06/14 07:23:12;;;;;;;;;1.00;1.00;;;;;34.07;49.76;98380.09;5030016;28;8875;-72
2021/06/14 07:25:41;;;;;;;;;2.00;2.00;;;;;34.08;48.46;98373.41;5032064;28;8842;-73
2021/06/14 07:28:10;;;;;;;;;1.00;1.00;;;;;34.12;47.95;98381.53;5033428;28;8855;-71
2021/06/14 07:30:38;;;;;;;;;2.00;2.00;;;;;34.07;50.75;98366.41;5039538;28;8842;-71
2021/06/14 07:33:08;;;;;;;;;1.60;1.60;;;;;34.03;48.21;98360.25;5043835;28;8863;-73
2021/06/14 07:35:38;;;;;;;;;2.20;2.20;;;;;34.11;48.03;98367.06;5046189;28;8945;-72
2021/06/14 07:38:06;;;;;;;;;1.00;1.00;;;;;34.12;47.85;98349.44;5034697;28;8827;-71
2021/06/14 07:40:36;;;;;;;;;1.80;1.80;;;;;34.28;48.59;98354.84;5032444;28;8969;-71
2021/06/14 07:43:10;;;;;;;;;1.80;1.80;;;;;34.36;46.93;98349.97;5039612;28;8925;-72
2021/06/14 07:45:39;;;;;;;;;0.00;0.00;;;;;34.34;48.37;98346.91;5036132;28;8852;-72
2021/06/14 07:48:17;;;;;;;;;0.00;0.00;;;;;34.35;46.22;98353.91;5032038;28;8947;-71
2021/06/14 07:50:47;;;;;;;;;1.00;1.00;;;;;34.30;48.13;98343.47;5034178;28;8840;-70
2021/06/14 07:53:17;;;;;;;;;0.80;0.80;;;;;34.17;48.76;98335.22;5036096;28;9582;-71
2021/06/14 07:55:47;;;;;;;;;1.00;1.00;;;;;34.18;49.19;98355.91;5029336;28;8884;-72
2021/06/14 07:58:16;;;;;;;;;1.00;1.00;;;;;34.08;46.51;98357.00;5031822;28;8806;-72
2021/06/14 08:00:45;;;;;;;;;0.80;0.80;;;;;34.03;47.94;98343.84;5031282;28;8932;-69
2021/06/14 08:03:14;;;;;;;;;1.00;1.00;;;;;34.04;47.33;98353.59;5032789;28;8846;-71
2021/06/14 08:05:44;;;;;;;;;1.00;1.00;;;;;34.00;48.36;98328.28;5039482;28;8869;-73
2021/06/14 08:08:14;;;;;;;;;2.00;2.00;;;;;34.10;48.80;98338.16;5030295;28;8922;-71
2021/06/14 08:10:45;;;;;;;;;1.00;1.00;;;;;34.19;48.42;98332.81;5031543;28;8837;-72
2021/06/14 08:13:17;;;;;;;;;1.00;1.00;;;;;34.18;48.33;98320.34;5030921;28;8995;-74
2021/06/14 08:15:46;;;;;;;;;1.00;1.00;;;;;34.29;48.41;98331.75;5038229;28;8843;-71
2021/06/14 08:21:10;;;;;;;;;1.00;1.00;;;;;34.07;47.65;98306.19;5037943;28;8971;-70
2021/06/14 08:26:30;;;;;;;;;0.80;0.80;;;;;33.87;48.56;98311.06;5030950;28;8983;-72
2021/06/14 08:29:09;;;;;;;;;1.00;1.00;;;;;33.77;47.56;98314.84;5031015;28;8983;-72
2021/06/14 08:31:38;;;;;;;;;0.00;0.00;;;;;33.76;46.02;98313.31;5032313;28;8855;-71
2021/06/14 08:34:09;;;;;;;;;1.00;1.00;;;;;33.55;47.17;98276.38;5036271;28;8834;-72
2021/06/14 08:36:40;;;;;;;;;0.40;0.40;;;;;33.77;45.89;98293.75;5039693;28;8859;-71
2021/06/14 08:39:17;;;;;;;;;0.40;0.40;;;;;34.02;46.58;98304.75;5040151;28;8857;-72
2021/06/14 08:41:46;;;;;;;;;0.00;0.00;;;;;34.14;46.03;98305.22;5036725;28;8865;-71
2021/06/14 08:44:15;;;;;;;;;0.80;0.80;;;;;34.11;46.60;98278.72;5040897;28;8971;-71
2021/06/14 08:46:44;;;;;;;;;0.40;0.40;;;;;34.30;47.69;98288.69;5038154;28;8850;-71
2021/06/14 08:49:17;;;;;;;;;0.60;0.60;;;;;34.31;46.13;98288.28;5042493;28;8859;-72
2021/06/14 08:51:46;;;;;;;;;1.40;1.40;;;;;34.35;45.63;98288.97;5040587;28;8841;-71
2021/06/14 08:54:15;;;;;;;;;1.00;1.00;;;;;34.35;47.53;98272.53;5059226;28;8904;-71
2021/06/14 08:56:44;;;;;;;;;1.00;0.40;;;;;34.50;46.73;98277.56;5070914;28;8921;-70
2021/06/14 08:59:13;;;;;;;;;1.60;1.60;;;;;34.46;46.52;98272.19;5069177;28;8867;-72
2021/06/14 09:01:41;;;;;;;;;0.80;0.80;;;;;34.43;46.20;98273.06;5070221;28;8915;-72
2021/06/14 09:04:10;;;;;;;;;1.60;1.60;;;;;34.40;45.87;98260.25;5070200;28;8842;-72
2021/06/14 09:06:38;;;;;;;;;0.80;0.80;;;;;34.37;46.50;98266.59;5070425;28;8845;-72
2021/06/14 09:09:08;;;;;;;;;1.00;1.00;;;;;34.32;46.59;98265.19;5069241;28;9321;-73
2021/06/14 09:11:47;;;;;;;;;0.80;0.80;;;;;34.28;45.46;98261.75;5069371;28;8861;-72
2021/06/14 09:14:19;;;;;;;;;0.20;0.20;;;;;34.17;46.22;98236.69;5070356;28;8834;-70
2021/06/14 09:16:51;;;;;;;;;1.00;1.00;;;;;34.34;45.40;98251.81;5070187;28;8838;-71
2021/06/14 09:19:26;;;;;;;;;1.00;1.00;;;;;34.40;46.61;98246.56;5070942;28;8915;-71
2021/06/14 09:21:57;;;;;;;;;0.80;0.80;;;;;34.47;46.40;98251.81;5071541;28;9667;-71
2021/06/14 09:24:26;;;;;;;;;1.00;1.00;;;;;34.49;46.43;98241.19;5071316;28;8847;-72
2021/06/14 09:26:56;;;;;;;;;1.00;1.00;;;;;34.49;45.93;98243.94;5071373;28;8829;-71
2021/06/14 09:29:29;;;;;;;;;1.00;1.00;;;;;34.48;46.05;98241.63;5071444;28;8849;-72
2021/06/14 09:32:03;;;;;;;;;1.60;1.60;;;;;34.46;46.88;98233.09;5071438;28;8952;-71
2021/06/14 09:34:42;;;;;;;;;1.00;1.00;;;;;34.45;46.31;98245.25;5071365;28;8841;-71
2021/06/14 09:37:15;;;;;;;;;1.60;1.60;;;;;34.35;45.82;98242.41;5071343;28;8872;-71
2021/06/14 09:39:47;;;;;;;;;2.60;2.60;;;;;34.27;47.29;98240.28;5071299;28;8837;-72
2021/06/14 09:42:25;;;;;;;;;2.00;2.00;;;;;34.20;47.33;98241.28;5073499;28;8872;-71
2021/06/14 09:45:03;;;;;;;;;2.40;2.40;;;;;34.13;46.74;98249.69;5074881;28;8956;-71
2021/06/14 09:47:32;;;;;;;;;0.80;0.80;;;;;34.04;47.37;98247.59;5075023;28;8833;-71
2021/06/14 09:50:08;;;;;;;;;2.00;2.00;;;;;33.92;47.71;98250.31;5074744;28;8941;-71
2021/06/14 09:52:37;;;;;;;;;2.00;2.00;;;;;33.83;47.47;98250.19;5057107;28;8889;-72
2021/06/14 09:55:16;;;;;;;;;1.60;1.60;;;;;33.74;47.60;98259.03;5074514;28;8918;-72
2021/06/14 09:57:45;;;;;;;;;2.40;2.40;;;;;33.65;47.86;98258.91;5074578;28;8818;-71
2021/06/14 10:00:16;;;;;;;;;2.60;2.60;;;;;33.53;48.31;98254.16;5074570;28;8834;-71
2021/06/14 10:02:46;;;;;;;;;3.00;3.00;;;;;33.45;48.26;98263.75;5074809;28;8844;-71
2021/06/14 10:05:20;;;;;;;;;1.80;1.80;;;;;33.36;48.58;98270.59;5074412;28;8825;-71
2021/06/14 10:07:51;;;;;;;;;2.60;2.60;;;;;33.30;48.56;98253.19;5074342;28;8848;-71
2021/06/14 10:10:29;;;;;;;;;0.40;0.40;;;;;33.29;48.82;98262.59;5074408;28;8988;-71
2021/06/14 10:12:59;;;;;;;;;1.40;1.40;;;;;33.26;48.75;98254.44;5074383;28;8837;-71
2021/06/14 10:15:37;;;;;;;;;1.80;1.80;;;;;33.23;48.90;98258.81;5074289;28;8833;-71
2021/06/14 10:18:11;;;;;;;;;2.00;2.00;;;;;33.21;48.86;98255.75;5074614;28;8837;-72
2021/06/14 10:20:40;;;;;;;;;2.00;2.00;;;;;33.18;48.92;98256.59;5074476;28;8837;-71
2021/06/14 10:23:08;;;;;;;;;4.00;4.00;;;;;33.12;49.26;98254.81;5074413;28;8829;-71
2021/06/14 10:25:38;;;;;;;;;2.00;2.00;;;;;33.14;50.00;98263.34;5057132;28;8868;-71
2021/06/14 10:28:08;;;;;;;;;2.00;2.00;;;;;33.11;49.44;98267.72;5073979;28;8860;-71
2021/06/14 10:30:37;;;;;;;;;1.40;1.40;;;;;33.15;49.29;98281.28;5074323;28;9559;-71
2021/06/14 10:33:06;;;;;;;;;2.00;2.00;;;;;33.15;49.85;98282.06;5073937;28;8941;-71
2021/06/14 10:35:36;;;;;;;;;3.20;3.20;;;;;33.14;49.57;98279.75;5074136;28;8826;-71
2021/06/14 10:38:05;;;;;;;;;2.40;2.40;;;;;33.13;49.55;98278.97;5073927;28;8828;-71
2021/06/14 10:40:36;;;;;;;;;2.80;2.80;;;;;33.05;49.45;98272.94;5074056;28;8825;-71
2021/06/14 10:43:06;;;;;;;;;2.80;2.80;;;;;33.14;49.08;98285.22;5074045;28;8864;-72
2021/06/14 10:45:35;;;;;;;;;2.00;2.00;;;;;33.14;49.40;98296.16;5073796;28;8922;-71
2021/06/14 10:48:09;;;;;;;;;2.80;2.80;;;;;33.10;49.65;98287.28;5073574;28;8883;-71
2021/06/14 10:51:00;;;;;;;;;3.80;3.80;;;;;33.11;49.65;98291.53;5073492;28;8846;-71
2021/06/14 10:53:32;;;;;;;;;2.20;2.20;;;;;33.07;49.43;98286.16;5073133;28;8959;-71
2021/06/14 10:56:02;;;;;;;;;2.40;2.40;;;;;33.00;49.36;98281.66;5073487;28;8825;-71
2021/06/14 10:58:31;;;;;;;;;2.00;2.00;;;;;32.96;49.37;98275.50;5073143;28;9558;-71
2021/06/14 11:01:00;;;;;;;;;2.00;2.00;;;;;33.00;49.41;98295.31;5073444;28;8814;-71
2021/06/14 11:03:46;;;;;;;;;2.20;2.20;;;;;32.97;49.32;98296.16;5073278;28;8868;-71
2021/06/14 11:06:22;;;;;;;;;1.20;1.20;;;;;32.93;49.69;98300.94;5073239;28;8833;-71
2021/06/14 11:08:58;;;;;;;;;2.20;2.20;;;;;32.88;49.70;98295.22;5073179;28;8975;-71
2021/06/14 11:11:27;;;;;;;;;2.60;2.60;;;;;32.83;49.75;98299.22;5073299;28;8944;-71
2021/06/14 11:13:56;;;;;;;;;2.00;2.00;;;;;32.76;50.08;98299.41;5073255;28;9608;-71
2021/06/14 11:16:36;;;;;;;;;3.00;3.00;;;;;32.74;49.97;98302.53;5073609;28;9559;-71
2021/06/14 11:19:08;;;;;;;;;1.20;1.20;;;;;32.70;49.98;98303.81;5056278;28;8862;-71
2021/06/14 11:21:39;;;;;;;;;2.00;2.00;;;;;32.64;50.05;98303.53;5074404;28;8884;-72
2021/06/14 11:24:13;;;;;;;;;1.20;1.20;;;;;32.55;50.11;98297.13;5074756;28;8841;-71
2021/06/14 11:26:41;;;;;;;;;0.80;0.80;;;;;32.60;50.29;98308.31;5074824;28;8884;-71
2021/06/14 11:29:12;;;;;;;;;2.00;2.00;;;;;32.56;50.00;98307.63;5073696;28;8852;-72
2021/06/14 11:31:41;;;;;;;;;1.00;1.00;;;;;32.54;50.65;98310.00;5073182;28;8841;-71
2021/06/14 11:34:20;;;;;;;;;2.20;2.20;;;;;32.51;50.71;98304.63;5072788;28;8845;-71
2021/06/14 11:36:56;;;;;;;;;1.00;1.00;;;;;32.47;51.24;98309.44;5072794;28;8845;-71
2021/06/14 11:39:26;;;;;;;;;1.80;1.80;;;;;32.41;50.80;98307.19;5072893;28;8845;-71
2021/06/14 11:41:56;;;;;;;;;3.00;3.00;;;;;32.37;51.23;98303.78;5072655;28;8834;-71
2021/06/14 11:44:29;;;;;;;;;3.00;3.00;;;;;32.38;51.11;98313.50;5072630;28;9581;-71
2021/06/14 11:47:17;;;;;;;;;2.60;2.60;;;;;32.26;51.10;98305.97;5072525;28;8861;-71
2021/06/14 11:49:47;;;;;;;;;2.80;2.80;;;;;32.32;51.10;98319.88;5055108;28;8838;-71
2021/06/14 11:52:22;;;;;;;;;1.80;1.80;;;;;32.25;51.31;98314.56;5054979;28;8830;-71
2021/06/14 11:54:55;;;;;;;;;3.80;3.20;;;;;32.22;51.39;98313.44;5072226;28;8956;-71
2021/06/14 11:57:34;;;;;;;;;4.80;3.00;;;;;32.17;51.79;98319.38;5072358;28;8861;-71
2021/06/14 12:00:08;;;;;;;;;3.60;3.60;;;;;32.18;51.79;98336.53;5072357;28;8849;-71
2021/06/14 12:02:36;;;;;;;;;2.00;2.00;;;;;32.15;51.52;98335.41;5072316;28;8849;-71
2021/06/14 12:05:08;;;;;;;;;3.00;3.00;;;;;32.13;51.71;98331.56;5072242;28;8849;-71